Leni P. — A8XW5 — position and weather

sailwx.info

Track history (hours):
 
Tides and Currents Weather Stations Pressure Air Temp Water Temp Dewpoint Dewpoint Depression Visibility Wind Speed Wind Dir Waves Ship Positions

Leni P.

Last reported at 2015-Jan-16 00:06 UTC. Time now 2015-Jan-27 21:00 UTC.
Position N 36°05' W 005°09'.
Warning: this ship's position is 11 days out of date.

Length 274 m; draft 9 m.

Type: Tanker. MMSI: 636014986.

Date/timePositionNaut miles runAvg speedWind from/ knotsBaromVisibWave heightAir tempDewpointWater temp
2015-Jan-16 00:06N 36°05' W 005°09'814.3
2015-Jan-15 23:34N 36°04' W 005°19'5 4.5
2015-Jan-15 22:29N 36°06' W 005°24'0 0.0
2015-Jan-15 21:32N 36°06' W 005°24'0 0.0
2015-Jan-15 20:32N 36°06' W 005°24'0 0.0
2015-Jan-15 19:32N 36°06' W 005°24'0 0.0
2015-Jan-15 18:32N 36°06' W 005°24'0 0.0
2015-Jan-15 17:32N 36°06' W 005°24'0 0.0
2015-Jan-15 16:32N 36°06' W 005°24'0 0.0
2015-Jan-15 15:32N 36°06' W 005°24'0 0.0
2015-Jan-15 14:29N 36°06' W 005°24'0 0.1
2015-Jan-15 13:32N 36°05' W 005°24'0 0.1
2015-Jan-15 12:32N 36°06' W 005°24'0 0.0
2015-Jan-15 11:32N 36°06' W 005°24'0 0.2
2015-Jan-15 10:32N 36°05' W 005°24'0 0.1
2015-Jan-15 09:32N 36°05' W 005°24'0 0.1
2015-Jan-15 08:23N 36°05' W 005°25'0 0.2
2015-Jan-15 07:32N 36°06' W 005°25'0 0.1
2015-Jan-15 06:32N 36°06' W 005°25'0 0.1
2015-Jan-15 05:32N 36°06' W 005°24'0 0.0
2015-Jan-15 04:32N 36°06' W 005°24'0 0.1
2015-Jan-15 03:32N 36°05' W 005°24'0 0.1
2015-Jan-15 02:32N 36°05' W 005°24'0 0.1
2015-Jan-15 01:32N 36°05' W 005°24'1 0.7
2015-Jan-15 00:34N 36°05' W 005°24'5 4.7
2015-Jan-14 23:33N 36°04' W 005°18'5 0.5
2015-Jan-14 14:10N 36°05' W 005°12'3 4.9
2015-Jan-14 13:34N 36°05' W 005°15'2 2.0
2015-Jan-14 12:33N 36°05' W 005°13'3 2.3
2015-Jan-14 11:24N 36°06' W 005°10'1 1.5
2015-Jan-14 10:30N 36°08' W 005°10'6 4.5
2015-Jan-14 09:06N 36°11' W 005°04'10 0.5
2015-Jan-13 14:05N 36°04' W 005°13'3 6.2
2015-Jan-13 13:33N 36°05' W 005°17'6 6.0
2015-Jan-13 12:34N 36°08' W 005°24'2 1.7
2015-Jan-13 11:22N 36°09' W 005°25'0 0.0
2015-Jan-13 10:19N 36°09' W 005°25'0 0.1
2015-Jan-13 09:31N 36°10' W 005°25'0 0.0
2015-Jan-13 08:31N 36°10' W 005°25'0 0.1
2015-Jan-13 07:19N 36°09' W 005°25'0 0.0
2015-Jan-13 06:31N 36°09' W 005°25'0 0.0
2015-Jan-13 05:28N 36°09' W 005°25'0 0.0
2015-Jan-13 04:31N 36°09' W 005°25'0 0.0
2015-Jan-13 03:13N 36°09' W 005°25'0 0.0
2015-Jan-13 02:10N 36°09' W 005°25'0 0.0
2015-Jan-13 01:19N 36°09' W 005°25'0 0.0
2015-Jan-13 00:31N 36°09' W 005°25'0 0.0
2015-Jan-12 23:28N 36°09' W 005°25'0 0.0
2015-Jan-12 22:28N 36°09' W 005°25'0 0.0
2015-Jan-12 21:31N 36°09' W 005°25'0 0.0
2015-Jan-12 20:31N 36°09' W 005°25'0 0.0
2015-Jan-12 19:28N 36°09' W 005°25'0 0.0
2015-Jan-12 18:19N 36°09' W 005°25'0 0.0
2015-Jan-12 17:31N 36°09' W 005°25'0 0.0
2015-Jan-12 16:22N 36°09' W 005°25'0 0.0
2015-Jan-12 14:19N 36°09' W 005°25'0 0.0
2015-Jan-12 13:13N 36°09' W 005°25'0 0.0
2015-Jan-12 12:25N 36°09' W 005°25'0 0.0
2015-Jan-12 11:31N 36°09' W 005°25'0 0.0
2015-Jan-12 10:19N 36°09' W 005°25'0 0.0
2015-Jan-12 09:31N 36°09' W 005°25'0 0.0
2015-Jan-12 08:25N 36°09' W 005°25'0 0.0
2015-Jan-12 07:25N 36°09' W 005°25'0 0.0
2015-Jan-12 06:31N 36°09' W 005°25'0 0.0
2015-Jan-12 05:31N 36°09' W 005°25'0 0.3
2015-Jan-12 04:25N 36°09' W 005°24'0 0.1
2015-Jan-12 03:31N 36°09' W 005°24'0 0.0
2015-Jan-12 02:31N 36°09' W 005°24'0 0.0
2015-Jan-12 01:31N 36°09' W 005°24'0 0.0
2015-Jan-12 00:31N 36°09' W 005°24'0 0.0
2015-Jan-11 23:31N 36°09' W 005°24'0 0.0
2015-Jan-11 22:31N 36°09' W 005°24'0 0.0
2015-Jan-11 21:31N 36°09' W 005°24'0 0.1
2015-Jan-11 20:31N 36°09' W 005°24'0 0.0
2015-Jan-11 19:31N 36°09' W 005°24'0 0.0
2015-Jan-11 18:25N 36°09' W 005°24'0 0.1
2015-Jan-11 17:31N 36°09' W 005°24'0 0.0
2015-Jan-11 16:31N 36°09' W 005°24'0 0.0
2015-Jan-11 15:31N 36°09' W 005°24'0 0.0
2015-Jan-11 14:31N 36°09' W 005°24'0 0.0
2015-Jan-11 13:31N 36°09' W 005°24'0 0.0
2015-Jan-11 12:31N 36°09' W 005°24'0 0.0
2015-Jan-11 11:31N 36°09' W 005°24'0 0.1
2015-Jan-11 10:31N 36°09' W 005°24'0 0.0
2015-Jan-11 09:31N 36°09' W 005°24'0 0.1
2015-Jan-11 08:31N 36°09' W 005°24'0 0.1
2015-Jan-11 07:31N 36°09' W 005°24'0 0.0
2015-Jan-11 06:31N 36°09' W 005°24'0 0.1
2015-Jan-11 05:31N 36°09' W 005°24'0 0.1
2015-Jan-11 04:31N 36°10' W 005°24'0 0.0
2015-Jan-11 03:31N 36°10' W 005°24'0 0.1
2015-Jan-11 02:31N 36°09' W 005°24'0 0.1
2015-Jan-11 01:31N 36°09' W 005°24'0 0.0
2015-Jan-11 00:31N 36°09' W 005°24'0 0.0
2015-Jan-10 23:31N 36°09' W 005°24'0 0.0
2015-Jan-10 22:31N 36°09' W 005°24'0 0.0
2015-Jan-10 21:28N 36°09' W 005°24'0 0.0
2015-Jan-10 20:25N 36°09' W 005°25'0 0.2
2015-Jan-10 19:07N 36°09' W 005°25'0 0.1
2015-Jan-10 18:31N 36°10' W 005°25'0 0.0
2015-Jan-10 17:31N 36°10' W 005°25'0 0.1
2015-Jan-10 16:31N 36°09' W 005°25'0 0.1
2015-Jan-10 15:28N 36°10' W 005°25'0 0.0
2015-Jan-10 14:31N 36°09' W 005°25'0 0.0
2015-Jan-10 13:31N 36°10' W 005°25'0 0.1
2015-Jan-10 12:31N 36°10' W 005°25'0 0.0
2015-Jan-10 11:31N 36°09' W 005°25'0 0.0
2015-Jan-10 10:28N 36°09' W 005°25'0 0.0
2015-Jan-10 09:28N 36°10' W 005°25'0 0.0
2015-Jan-10 08:28N 36°09' W 005°25'0 0.1
2015-Jan-10 07:28N 36°10' W 005°25'0 0.0
2015-Jan-10 06:28N 36°09' W 005°25'0 0.0
2015-Jan-10 05:28N 36°09' W 005°25'0 0.0
2015-Jan-10 04:31N 36°09' W 005°25'0 0.0
2015-Jan-10 03:25N 36°09' W 005°25'0 0.0
2015-Jan-10 02:31N 36°09' W 005°25'0 0.0
2015-Jan-10 01:25N 36°09' W 005°25'0 0.0
2015-Jan-10 00:19N 36°09' W 005°25'0 0.0
2015-Jan-09 23:25N 36°09' W 005°25'0 0.0
2015-Jan-09 22:19N 36°09' W 005°25'0 0.0
2015-Jan-09 21:31N 36°09' W 005°25'0 0.0
2015-Jan-09 20:25N 36°09' W 005°25'0 0.0
2015-Jan-09 19:10N 36°09' W 005°25'0 0.0
2015-Jan-09 18:25N 36°09' W 005°25'0 0.0
2015-Jan-09 17:31N 36°09' W 005°25'0 0.0
2015-Jan-09 16:31N 36°10' W 005°25'0 0.0
2015-Jan-09 15:19N 36°09' W 005°25'0 0.0
2015-Jan-09 14:28N 36°09' W 005°25'0 0.0
2015-Jan-09 13:31N 36°09' W 005°25'0 0.0
2015-Jan-09 12:31N 36°09' W 005°25'0 0.0
2015-Jan-09 11:19N 36°09' W 005°25'0 0.0
2015-Jan-09 10:25N 36°09' W 005°25'0 0.0
2015-Jan-09 09:22N 36°09' W 005°25'0 0.0
2015-Jan-09 08:31N 36°09' W 005°25'0 0.0
2015-Jan-09 07:28N 36°09' W 005°25'0 0.0
2015-Jan-09 06:31N 36°09' W 005°25'0 0.0
2015-Jan-09 05:31N 36°09' W 005°25'0 0.0
2015-Jan-09 02:31N 36°09' W 005°25'0 0.0
2015-Jan-08 22:22N 36°09' W 005°25'0 0.0
2015-Jan-08 20:13N 36°09' W 005°25'0 0.1
2015-Jan-08 19:07N 36°09' W 005°25'1 0.8
2015-Jan-08 18:25N 36°10' W 005°25'0 0.0
2015-Jan-08 04:31N 36°10' W 005°25'0 0.0
2015-Jan-08 03:43N 36°10' W 005°25'0 0.0
2015-Jan-07 17:07N 36°10' W 005°25'0 0.0
2015-Jan-07 16:25N 36°10' W 005°25'0 0.0
2015-Jan-07 15:13N 36°10' W 005°25'0 0.1
2015-Jan-07 14:19N 36°10' W 005°25'0 0.1
2015-Jan-07 12:29N 36°10' W 005°25'4 3.7
2015-Jan-07 11:31N 36°07' W 005°23'7 7.8
2015-Jan-07 10:34N 36°00' W 005°18'  
Track history (hours):
 
Tides and Currents Weather Stations Pressure Air Temp Water Temp Dewpoint Dewpoint Depression Visibility Wind Speed Wind Dir Waves Ship Positions

Leni P.

Last reported at 2015-Jan-16 00:06 UTC. Time now 2015-Jan-27 21:00 UTC.
Position N 36°05' W 005°09'.
Warning: this ship's position is 11 days out of date.

Length 274 m; draft 9 m.

Type: Tanker. MMSI: 636014986.

Date/timePositionNaut miles runAvg speedWind from/ knotsBaromVisibWave heightAir tempDewpointWater temp
2015-Jan-16 00:06N 36°05' W 005°09'814.3
2015-Jan-15 23:34N 36°04' W 005°19'5 4.5
2015-Jan-15 22:29N 36°06' W 005°24'0 0.0
2015-Jan-15 21:32N 36°06' W 005°24'0 0.0
2015-Jan-15 20:32N 36°06' W 005°24'0 0.0
2015-Jan-15 19:32N 36°06' W 005°24'0 0.0
2015-Jan-15 18:32N 36°06' W 005°24'0 0.0
2015-Jan-15 17:32N 36°06' W 005°24'0 0.0
2015-Jan-15 16:32N 36°06' W 005°24'0 0.0
2015-Jan-15 15:32N 36°06' W 005°24'0 0.0
2015-Jan-15 14:29N 36°06' W 005°24'0 0.1
2015-Jan-15 13:32N 36°05' W 005°24'0 0.1
2015-Jan-15 12:32N 36°06' W 005°24'0 0.0
2015-Jan-15 11:32N 36°06' W 005°24'0 0.2
2015-Jan-15 10:32N 36°05' W 005°24'0 0.1
2015-Jan-15 09:32N 36°05' W 005°24'0 0.1
2015-Jan-15 08:23N 36°05' W 005°25'0 0.2
2015-Jan-15 07:32N 36°06' W 005°25'0 0.1
2015-Jan-15 06:32N 36°06' W 005°25'0 0.1
2015-Jan-15 05:32N 36°06' W 005°24'0 0.0
2015-Jan-15 04:32N 36°06' W 005°24'0 0.1
2015-Jan-15 03:32N 36°05' W 005°24'0 0.1
2015-Jan-15 02:32N 36°05' W 005°24'0 0.1
2015-Jan-15 01:32N 36°05' W 005°24'1 0.7
2015-Jan-15 00:34N 36°05' W 005°24'5 4.7
2015-Jan-14 23:33N 36°04' W 005°18'5 0.5
2015-Jan-14 14:10N 36°05' W 005°12'3 4.9
2015-Jan-14 13:34N 36°05' W 005°15'2 2.0
2015-Jan-14 12:33N 36°05' W 005°13'3 2.3
2015-Jan-14 11:24N 36°06' W 005°10'1 1.5
2015-Jan-14 10:30N 36°08' W 005°10'6 4.5
2015-Jan-14 09:06N 36°11' W 005°04'10 0.5
2015-Jan-13 14:05N 36°04' W 005°13'3 6.2
2015-Jan-13 13:33N 36°05' W 005°17'6 6.0
2015-Jan-13 12:34N 36°08' W 005°24'2 1.7
2015-Jan-13 11:22N 36°09' W 005°25'0 0.0
2015-Jan-13 10:19N 36°09' W 005°25'0 0.1
2015-Jan-13 09:31N 36°10' W 005°25'0 0.0
2015-Jan-13 08:31N 36°10' W 005°25'0 0.1
2015-Jan-13 07:19N 36°09' W 005°25'0 0.0
2015-Jan-13 06:31N 36°09' W 005°25'0 0.0
2015-Jan-13 05:28N 36°09' W 005°25'0 0.0
2015-Jan-13 04:31N 36°09' W 005°25'0 0.0
2015-Jan-13 03:13N 36°09' W 005°25'0 0.0
2015-Jan-13 02:10N 36°09' W 005°25'0 0.0
2015-Jan-13 01:19N 36°09' W 005°25'0 0.0
2015-Jan-13 00:31N 36°09' W 005°25'0 0.0
2015-Jan-12 23:28N 36°09' W 005°25'0 0.0
2015-Jan-12 22:28N 36°09' W 005°25'0 0.0
2015-Jan-12 21:31N 36°09' W 005°25'0 0.0
2015-Jan-12 20:31N 36°09' W 005°25'0 0.0
2015-Jan-12 19:28N 36°09' W 005°25'0 0.0
2015-Jan-12 18:19N 36°09' W 005°25'0 0.0
2015-Jan-12 17:31N 36°09' W 005°25'0 0.0
2015-Jan-12 16:22N 36°09' W 005°25'0 0.0
2015-Jan-12 14:19N 36°09' W 005°25'0 0.0
2015-Jan-12 13:13N 36°09' W 005°25'0 0.0
2015-Jan-12 12:25N 36°09' W 005°25'0 0.0
2015-Jan-12 11:31N 36°09' W 005°25'0 0.0
2015-Jan-12 10:19N 36°09' W 005°25'0 0.0
2015-Jan-12 09:31N 36°09' W 005°25'0 0.0
2015-Jan-12 08:25N 36°09' W 005°25'0 0.0
2015-Jan-12 07:25N 36°09' W 005°25'0 0.0
2015-Jan-12 06:31N 36°09' W 005°25'0 0.0
2015-Jan-12 05:31N 36°09' W 005°25'0 0.3
2015-Jan-12 04:25N 36°09' W 005°24'0 0.1
2015-Jan-12 03:31N 36°09' W 005°24'0 0.0
2015-Jan-12 02:31N 36°09' W 005°24'0 0.0
2015-Jan-12 01:31N 36°09' W 005°24'0 0.0
2015-Jan-12 00:31N 36°09' W 005°24'0 0.0
2015-Jan-11 23:31N 36°09' W 005°24'0 0.0
2015-Jan-11 22:31N 36°09' W 005°24'0 0.0
2015-Jan-11 21:31N 36°09' W 005°24'0 0.1
2015-Jan-11 20:31N 36°09' W 005°24'0 0.0
2015-Jan-11 19:31N 36°09' W 005°24'0 0.0
2015-Jan-11 18:25N 36°09' W 005°24'0 0.1
2015-Jan-11 17:31N 36°09' W 005°24'0 0.0
2015-Jan-11 16:31N 36°09' W 005°24'0 0.0
2015-Jan-11 15:31N 36°09' W 005°24'0 0.0
2015-Jan-11 14:31N 36°09' W 005°24'0 0.0
2015-Jan-11 13:31N 36°09' W 005°24'0 0.0
2015-Jan-11 12:31N 36°09' W 005°24'0 0.0
2015-Jan-11 11:31N 36°09' W 005°24'0 0.1
2015-Jan-11 10:31N 36°09' W 005°24'0 0.0
2015-Jan-11 09:31N 36°09' W 005°24'0 0.1
2015-Jan-11 08:31N 36°09' W 005°24'0 0.1
2015-Jan-11 07:31N 36°09' W 005°24'0 0.0
2015-Jan-11 06:31N 36°09' W 005°24'0 0.1
2015-Jan-11 05:31N 36°09' W 005°24'0 0.1
2015-Jan-11 04:31N 36°10' W 005°24'0 0.0
2015-Jan-11 03:31N 36°10' W 005°24'0 0.1
2015-Jan-11 02:31N 36°09' W 005°24'0 0.1
2015-Jan-11 01:31N 36°09' W 005°24'0 0.0
2015-Jan-11 00:31N 36°09' W 005°24'0 0.0
2015-Jan-10 23:31N 36°09' W 005°24'0 0.0
2015-Jan-10 22:31N 36°09' W 005°24'0 0.0
2015-Jan-10 21:28N 36°09' W 005°24'0 0.0
2015-Jan-10 20:25N 36°09' W 005°25'0 0.2
2015-Jan-10 19:07N 36°09' W 005°25'0 0.1
2015-Jan-10 18:31N 36°10' W 005°25'0 0.0
2015-Jan-10 17:31N 36°10' W 005°25'0 0.1
2015-Jan-10 16:31N 36°09' W 005°25'0 0.1
2015-Jan-10 15:28N 36°10' W 005°25'0 0.0
2015-Jan-10 14:31N 36°09' W 005°25'0 0.0
2015-Jan-10 13:31N 36°10' W 005°25'0 0.1
2015-Jan-10 12:31N 36°10' W 005°25'0 0.0
2015-Jan-10 11:31N 36°09' W 005°25'0 0.0
2015-Jan-10 10:28N 36°09' W 005°25'0 0.0
2015-Jan-10 09:28N 36°10' W 005°25'0 0.0
2015-Jan-10 08:28N 36°09' W 005°25'0 0.1
2015-Jan-10 07:28N 36°10' W 005°25'0 0.0
2015-Jan-10 06:28N 36°09' W 005°25'0 0.0
2015-Jan-10 05:28N 36°09' W 005°25'0 0.0
2015-Jan-10 04:31N 36°09' W 005°25'0 0.0
2015-Jan-10 03:25N 36°09' W 005°25'0 0.0
2015-Jan-10 02:31N 36°09' W 005°25'0 0.0
2015-Jan-10 01:25N 36°09' W 005°25'0 0.0
2015-Jan-10 00:19N 36°09' W 005°25'0 0.0
2015-Jan-09 23:25N 36°09' W 005°25'0 0.0
2015-Jan-09 22:19N 36°09' W 005°25'0 0.0
2015-Jan-09 21:31N 36°09' W 005°25'0 0.0
2015-Jan-09 20:25N 36°09' W 005°25'0 0.0
2015-Jan-09 19:10N 36°09' W 005°25'0 0.0
2015-Jan-09 18:25N 36°09' W 005°25'0 0.0
2015-Jan-09 17:31N 36°09' W 005°25'0 0.0
2015-Jan-09 16:31N 36°10' W 005°25'0 0.0
2015-Jan-09 15:19N 36°09' W 005°25'0 0.0
2015-Jan-09 14:28N 36°09' W 005°25'0 0.0
2015-Jan-09 13:31N 36°09' W 005°25'0 0.0
2015-Jan-09 12:31N 36°09' W 005°25'0 0.0
2015-Jan-09 11:19N 36°09' W 005°25'0 0.0
2015-Jan-09 10:25N 36°09' W 005°25'0 0.0
2015-Jan-09 09:22N 36°09' W 005°25'0 0.0
2015-Jan-09 08:31N 36°09' W 005°25'0 0.0
2015-Jan-09 07:28N 36°09' W 005°25'0 0.0
2015-Jan-09 06:31N 36°09' W 005°25'0 0.0
2015-Jan-09 05:31N 36°09' W 005°25'0 0.0
2015-Jan-09 02:31N 36°09' W 005°25'0 0.0
2015-Jan-08 22:22N 36°09' W 005°25'0 0.0
2015-Jan-08 20:13N 36°09' W 005°25'0 0.1
2015-Jan-08 19:07N 36°09' W 005°25'1 0.8
2015-Jan-08 18:25N 36°10' W 005°25'0 0.0
2015-Jan-08 04:31N 36°10' W 005°25'0 0.0
2015-Jan-08 03:43N 36°10' W 005°25'0 0.0
2015-Jan-07 17:07N 36°10' W 005°25'0 0.0
2015-Jan-07 16:25N 36°10' W 005°25'0 0.0
2015-Jan-07 15:13N 36°10' W 005°25'0 0.1
2015-Jan-07 14:19N 36°10' W 005°25'0 0.1
2015-Jan-07 12:29N 36°10' W 005°25'4 3.7
2015-Jan-07 11:31N 36°07' W 005°23'7 7.8
2015-Jan-07 10:34N 36°00' W 005°18'  

Dump ship's entire track history